Time;durP1;ratioP1;P1;durP2;ratioP2;P2;SDS_P1;SDS_P2;PMS_P1;PMS_P2;Temp;Humidity;BMP_temperature;BMP_pressure;BME280_temperature;BME280_humidity;BME280_pressure;Samples;Min_cycle;Max_cycle;Signal;HPM_P1;HPM_P2
2022/01/02 00:00:14;;;;;;;18.30;8.44;;;;;;;4.50;99.55;99940.22;1997211;80;20437;-72
2022/01/02 00:03:22;;;;;;;13.52;8.23;;;;;;;4.44;99.13;99946.03;1998021;78;20366;-72
2022/01/02 00:06:30;;;;;;;11.88;7.70;;;;;;;4.43;99.36;99941.72;1998977;81;21373;-72
2022/01/02 00:09:35;;;;;;;11.69;7.66;;;;;;;4.42;99.30;99936.53;1998144;81;20237;-72
2022/01/02 00:12:42;;;;;;;16.16;8.34;;;;;;;4.40;99.15;99930.47;1998410;81;20382;-72
2022/01/02 00:15:46;;;;;;;39.71;10.31;;;;;;;4.37;99.28;99912.41;1997684;78;20408;-72
2022/01/02 00:19:04;;;;;;;126.29;11.64;;;;;;;4.36;99.31;99916.66;2003349;80;20335;-72
2022/01/02 00:22:14;;;;;;;46.84;9.93;;;;;;;4.34;99.26;99912.31;2004058;80;20312;-72
2022/01/02 00:25:27;;;;;;;18.79;8.36;;;;;;;4.38;99.61;99906.41;2005927;80;20331;-72
2022/01/02 00:28:32;;;;;;;23.56;7.74;;;;;;;4.40;99.77;99907.34;2005566;80;20383;-72
2022/01/02 00:31:35;;;;;;;39.70;8.14;;;;;;;4.39;99.59;99900.44;2003416;78;21523;-72
2022/01/02 00:34:39;;;;;;;11.91;6.60;;;;;;;4.28;99.12;99910.41;2067561;69;20376;-71
2022/01/02 00:37:42;;;;;;;12.63;7.32;;;;;;;4.21;99.22;99901.66;2000707;81;20324;-71
2022/01/02 00:40:46;;;;;;;8.85;6.22;;;;;;;4.12;98.76;99903.06;2000911;81;20321;-72
2022/01/02 00:43:58;;;;;;;7.94;5.30;;;;;;;4.07;98.84;99896.94;2000649;81;20368;-72
2022/01/02 00:47:32;;;;;;;5.49;4.79;;;;;;;3.98;98.70;99896.69;1998736;78;21965;-71
2022/01/02 00:50:42;;;;;;;4.75;4.26;;;;;;;3.89;98.43;99890.44;2000477;81;20424;-71
2022/01/02 00:53:48;;;;;;;5.32;4.71;;;;;;;3.80;98.37;99890.16;2000248;81;20329;-71
2022/01/02 00:56:52;;;;;;;7.11;5.44;;;;;;;3.75;98.20;99880.56;2000973;81;21257;-71
2022/01/02 01:00:08;;;;;;;8.29;5.93;;;;;;;3.67;98.01;99887.16;2001061;81;20374;-71
2022/01/02 01:03:21;;;;;;;11.68;8.05;;;;;;;3.59;97.90;99884.34;1995196;78;21026;-71
2022/01/02 01:06:28;;;;;;;7.94;5.95;;;;;;;3.54;97.95;99884.22;1994417;81;20470;-71
2022/01/02 01:09:32;;;;;;;6.13;5.25;;;;;;;3.48;97.91;99891.72;1995138;81;20359;-71
2022/01/02 01:12:34;;;;;;;6.09;5.11;;;;;;;3.44;97.93;99896.72;1995280;81;20333;-71
2022/01/02 01:15:37;;;;;;;5.50;4.95;;;;;;;3.39;97.93;99883.72;1995201;78;20640;-71
2022/01/02 01:18:40;;;;;;;6.03;5.32;;;;;;;3.38;98.04;99875.97;2000719;81;20365;-71
2022/01/02 01:21:42;;;;;;;6.07;4.80;;;;;;;3.29;97.76;99876.56;2000189;81;20388;-71
2022/01/02 01:24:45;;;;;;;4.95;4.39;;;;;;;3.27;97.77;99884.22;2000535;81;20308;-71
2022/01/02 01:27:50;;;;;;;5.60;4.91;;;;;;;3.21;97.70;99871.16;2000675;81;20531;-71
2022/01/02 01:30:52;;;;;;;6.57;4.76;;;;;;;3.13;97.42;99857.22;1999412;78;22809;-71
2022/01/02 01:33:55;;;;;;;6.18;5.35;;;;;;;3.08;97.39;99852.78;2001246;81;20359;-71
2022/01/02 01:36:58;;;;;;;7.40;5.49;;;;;;;2.97;97.29;99853.28;2000919;81;20329;-69
2022/01/02 01:40:01;;;;;;;4.75;4.21;;;;;;;2.94;97.37;99858.31;2000875;81;20381;-69
2022/01/02 01:43:04;;;;;;;7.56;4.75;;;;;;;2.93;97.76;99860.84;1999850;80;20420;-69
2022/01/02 01:46:07;;;;;;;6.91;4.44;;;;;;;2.92;97.98;99861.66;2001686;79;21287;-69
2022/01/02 01:49:18;;;;;;;6.21;3.89;;;;;;;2.94;98.55;99863.44;2000714;81;20749;-69
2022/01/02 01:52:20;;;;;;;5.43;3.89;;;;;;;2.91;98.49;99860.78;1999793;81;20461;-69
2022/01/02 01:55:23;;;;;;;5.16;4.66;;;;;;;2.88;98.57;99849.56;2000751;81;20325;-69
2022/01/02 01:58:26;;;;;;;7.89;5.09;;;;;;;2.83;98.27;99851.06;2000498;81;20391;-69
2022/01/02 02:01:29;;;;;;;8.52;6.71;;;;;;;2.82;98.28;99855.31;2001451;78;21400;-69
2022/01/02 02:04:31;;;;;;;6.94;5.59;;;;;;;2.82;98.39;99863.03;2005120;80;20311;-69
2022/01/02 02:07:40;;;;;;;8.76;5.75;;;;;;;2.85;98.59;99858.00;2004821;80;21024;-69
2022/01/02 02:10:46;;;;;;;8.18;6.10;;;;;;;2.84;98.51;99853.69;2005442;80;20365;-69
2022/01/02 02:13:49;;;;;;;7.99;6.25;;;;;;;2.81;98.33;99856.16;2006072;80;20207;-69
2022/01/02 02:16:52;;;;;;;8.96;6.26;;;;;;;2.77;98.23;99861.13;2004125;78;23109;-69
2022/01/02 02:19:56;;;;;;;8.77;6.29;;;;;;;2.75;98.21;99858.50;2005501;80;20332;-69
2022/01/02 02:23:00;;;;;;;10.75;7.20;;;;;;;2.76;98.29;99854.25;2005119;80;20327;-69
2022/01/02 02:26:03;;;;;;;10.96;6.99;;;;;;;2.73;98.43;99853.34;2005313;80;20380;-69
2022/01/02 02:29:06;;;;;;;8.63;6.65;;;;;;;2.72;98.52;99851.59;2005490;80;20367;-69
2022/01/02 02:32:08;;;;;;;6.44;5.66;;;;;;;2.71;98.76;99847.28;2002917;78;21684;-68
2022/01/02 02:35:12;;;;;;;6.78;5.46;;;;;;;2.76;99.00;99837.19;2005551;80;20377;-69
2022/01/02 02:38:18;;;;;;;6.55;5.44;;;;;;;2.76;99.00;99831.19;2005685;80;20332;-69
2022/01/02 02:41:21;;;;;;;6.86;5.18;;;;;;;2.72;98.59;99823.41;2009174;80;20354;-69
2022/01/02 02:44:34;;;;;;;8.91;5.14;;;;;;;2.64;98.47;99824.81;2005413;80;20332;-69
2022/01/02 02:50:58;;;;;;;6.60;5.15;;;;;;;2.68;98.80;99812.97;2005636;80;20394;-69
2022/01/02 02:54:01;;;;;;;7.88;5.22;;;;;;;2.71;99.04;99792.59;2005589;80;20307;-69
2022/01/02 02:57:11;;;;;;;9.38;5.89;;;;;;;2.73;98.99;99802.06;2006224;80;20351;-69
2022/01/02 03:00:14;;;;;;;9.51;6.47;;;;;;;2.72;98.83;99787.50;2003799;80;20362;-69
2022/01/02 03:03:16;;;;;;;11.30;6.35;;;;;;;2.72;98.89;99786.63;2001841;81;20503;-69
2022/01/02 03:06:20;;;;;;;10.27;6.56;;;;;;;2.75;98.88;99790.97;2001277;81;20361;-69
2022/01/02 03:12:54;;;;;;;8.25;6.11;;;;;;;2.72;98.99;99787.50;1995586;81;20321;-69
2022/01/02 03:15:57;;;;;;;7.39;5.61;;;;;;;2.76;99.24;99785.03;1999189;80;23050;-68
2022/01/02 03:19:00;;;;;;;9.96;5.47;;;;;;;2.78;99.28;99768.00;2002222;81;20432;-69
2022/01/02 03:22:03;;;;;;;8.75;5.96;;;;;;;2.81;99.52;99762.97;2000963;81;20386;-69
2022/01/02 03:25:06;;;;;;;9.41;6.05;;;;;;;2.77;99.11;99759.44;2001685;81;20320;-68
2022/01/02 03:28:09;;;;;;;9.06;5.90;;;;;;;2.82;99.46;99759.59;2001045;81;20936;-69
2022/01/02 03:31:11;;;;;;;10.04;6.80;;;;;;;2.83;99.34;99758.75;2000323;78;20560;-69
2022/01/02 03:34:15;;;;;;;9.64;6.00;;;;;;;2.85;99.36;99747.72;2001772;81;20449;-69
2022/01/02 03:37:17;;;;;;;7.71;5.55;;;;;;;2.88;99.43;99758.09;2001601;81;20320;-69
2022/01/02 03:40:20;;;;;;;9.69;5.70;;;;;;;2.84;99.15;99753.69;2001864;81;20426;-69
2022/01/02 03:43:22;;;;;;;13.48;6.40;;;;;;;2.84;99.30;99763.94;2002257;81;20320;-69
2022/01/02 03:46:26;;;;;;;8.90;5.68;;;;;;;2.87;99.42;99764.06;2000307;78;21238;-68
2022/01/02 03:49:29;;;;;;;8.95;5.78;;;;;;;2.88;99.51;99745.28;2002146;81;20873;-69
2022/01/02 03:52:33;;;;;;;8.73;5.81;;;;;;;2.94;99.68;99735.22;2002234;81;20358;-71
2022/01/02 03:55:36;;;;;;;11.51;5.32;;;;;;;2.98;99.68;99736.16;1997681;81;20366;-71
2022/01/02 03:58:38;;;;;;;8.09;5.99;;;;;;;3.01;99.63;99732.00;2001974;81;20386;-69
2022/01/02 04:01:41;;;;;;;10.74;5.80;;;;;;;3.00;99.52;99721.69;2003084;77;20891;-69
2022/01/02 04:04:44;;;;;;;8.69;5.51;;;;;;;2.99;99.35;99733.66;2006513;80;20451;-69
2022/01/02 04:07:47;;;;;;;9.86;6.03;;;;;;;2.95;99.32;99730.94;2006121;80;20315;-69
2022/01/02 04:10:50;;;;;;;9.89;5.97;;;;;;;2.93;99.19;99728.34;2005526;80;20866;-69
2022/01/02 04:13:52;;;;;;;10.26;6.24;;;;;;;2.99;99.60;99727.66;2005334;80;20444;-69
2022/01/02 04:16:55;;;;;;;9.99;7.03;;;;;;;3.04;99.77;99729.53;2005380;78;20940;-69
2022/01/02 04:19:58;;;;;;;11.66;6.32;;;;;;;3.07;99.76;99727.91;2005681;80;20331;-69
2022/01/02 04:23:00;;;;;;;10.54;6.39;;;;;;;3.08;99.80;99727.94;2005896;80;21118;-69
2022/01/02 04:26:03;;;;;;;9.35;5.80;;;;;;;3.12;99.89;99734.03;2005110;80;20832;-69
2022/01/02 04:29:05;;;;;;;9.65;5.65;;;;;;;3.13;99.91;99721.25;2006633;80;21228;-69
2022/01/02 04:32:08;;;;;;;8.20;6.06;;;;;;;3.18;99.98;99721.38;2004351;77;22015;-69
2022/01/02 04:35:10;;;;;;;9.81;6.32;;;;;;;3.23;99.94;99722.38;2002440;80;21038;-69
2022/01/02 04:38:14;;;;;;;10.70;5.65;;;;;;;3.26;99.94;99707.09;2005688;80;20335;-69
2022/01/02 04:41:17;;;;;;;8.11;5.95;;;;;;;3.26;99.71;99710.53;2005834;80;20382;-69
2022/01/02 04:44:19;;;;;;;8.25;5.93;;;;;;;3.26;99.66;99723.38;2006187;80;20335;-69
2022/01/02 04:47:22;;;;;;;8.26;5.47;;;;;;;3.28;99.78;99728.56;2004478;78;20356;-69
2022/01/02 04:50:25;;;;;;;6.94;5.78;;;;;;;3.34;99.96;99723.59;2006184;80;20392;-69
2022/01/02 04:53:27;;;;;;;9.46;5.86;;;;;;;3.34;99.89;99715.88;2005654;80;20438;-69
2022/01/02 04:56:30;;;;;;;8.91;5.79;;;;;;;3.35;99.79;99707.38;2005782;80;20459;-69
2022/01/02 04:59:33;;;;;;;9.45;6.47;;;;;;;3.35;99.62;99697.09;2001866;80;20392;-69
2022/01/02 05:02:35;;;;;;;8.01;5.84;;;;;;;3.32;99.55;99700.44;2004318;78;21193;-69
2022/01/02 05:05:38;;;;;;;15.43;6.28;;;;;;;3.35;99.63;99697.09;2006141;80;20327;-69
2022/01/02 05:08:44;;;;;;;7.61;5.20;;;;;;;3.28;99.16;99703.75;2005979;80;20312;-69
2022/01/02 05:11:47;;;;;;;7.82;4.96;;;;;;;3.19;99.00;99700.91;2006054;80;20388;-69
2022/01/02 05:14:50;;;;;;;9.01;5.26;;;;;;;3.14;99.21;99699.03;2005754;80;20335;-69
2022/01/02 05:17:52;;;;;;;7.56;4.90;;;;;;;3.18;99.68;99693.16;2004536;78;20855;-69
2022/01/02 05:20:55;;;;;;;9.32;4.54;;;;;;;3.18;99.63;99683.78;2005933;80;20331;-69
2022/01/02 05:23:57;;;;;;;5.55;4.65;;;;;;;3.20;99.67;99683.81;2005884;80;20339;-69
2022/01/02 05:27:00;;;;;;;5.65;4.24;;;;;;;3.22;99.75;99677.03;2005660;80;20331;-69
2022/01/02 05:30:03;;;;;;;5.09;3.96;;;;;;;3.22;99.53;99672.75;2005238;80;20323;-69
2022/01/02 05:33:07;;;;;;;4.30;3.90;;;;;;;3.21;99.42;99659.91;2005567;78;20458;-69
2022/01/02 05:36:10;;;;;;;5.47;4.20;;;;;;;3.21;99.33;99667.59;2005312;80;20370;-70
2022/01/02 05:39:12;;;;;;;6.28;4.26;;;;;;;3.19;99.45;99659.84;2005944;80;20442;-70
2022/01/02 05:42:15;;;;;;;4.89;4.35;;;;;;;3.20;99.52;99661.59;2005146;80;20536;-69
2022/01/02 05:45:17;;;;;;;6.79;4.24;;;;;;;3.19;99.51;99666.69;2004336;80;20966;-69
2022/01/02 05:48:20;;;;;;;7.18;5.13;;;;;;;3.19;99.53;99658.97;2004835;80;20364;-69
2022/01/02 05:51:23;;;;;;;7.24;4.49;;;;;;;3.24;99.73;99649.75;2005891;80;21319;-69
2022/01/02 05:54:25;;;;;;;8.90;4.82;;;;;;;3.24;99.62;99649.75;2005092;80;20339;-69
2022/01/02 05:57:28;;;;;;;6.46;5.14;;;;;;;3.24;99.67;99650.63;2004928;80;20361;-69
2022/01/02 06:00:31;;;;;;;7.76;4.79;;;;;;;3.24;99.64;99649.75;2004505;78;20331;-70
2022/01/02 06:03:34;;;;;;;6.90;4.16;;;;;;;3.25;99.72;99651.50;2006448;80;20381;-70
2022/01/02 06:06:37;;;;;;;8.90;4.95;;;;;;;3.23;99.49;99656.56;2005879;80;20339;-70
2022/01/02 06:09:40;;;;;;;8.31;4.24;;;;;;;3.26;99.70;99654.09;2005399;80;20340;-70
2022/01/02 06:12:42;;;;;;;4.57;3.59;;;;;;;3.25;99.61;99654.91;2002340;80;20323;-70
2022/01/02 06:15:45;;;;;;;5.94;4.25;;;;;;;3.29;99.89;99661.88;2003934;77;22962;-70
2022/01/02 06:18:47;;;;;;;6.99;4.70;;;;;;;3.30;99.82;99668.75;2007357;80;21105;-70
2022/01/02 06:21:50;;;;;;;5.54;4.32;;;;;;;3.34;100.00;99662.88;2010750;80;20346;-70
2022/01/02 06:24:53;;;;;;;6.90;3.88;;;;;;;3.41;100.00;99657.91;2008422;80;20975;-70
2022/01/02 06:27:55;;;;;;;4.49;3.58;;;;;;;3.44;100.00;99660.56;2004123;80;20414;-70
2022/01/02 06:30:58;;;;;;;4.46;3.96;;;;;;;3.47;100.00;99663.22;2006174;78;21127;-70
2022/01/02 06:34:01;;;;;;;4.45;3.51;;;;;;;3.48;100.00;99670.97;2007750;80;20352;-70
2022/01/02 06:37:03;;;;;;;4.07;3.67;;;;;;;3.49;100.00;99665.00;2007596;80;20384;-70
2022/01/02 06:40:07;;;;;;;6.93;4.40;;;;;;;3.53;100.00;99661.69;2007762;80;20337;-70
2022/01/02 06:43:10;;;;;;;4.01;3.47;;;;;;;3.57;100.00;99647.22;2007719;80;20331;-70
2022/01/02 06:46:12;;;;;;;4.26;3.69;;;;;;;3.60;100.00;99639.66;2006218;78;22300;-70
2022/01/02 06:49:15;;;;;;;6.85;3.89;;;;;;;3.63;100.00;99645.72;2007152;80;20374;-70
2022/01/02 06:52:21;;;;;;;5.07;3.61;;;;;;;3.62;99.99;99633.72;2007772;80;21091;-70
2022/01/02 06:55:24;;;;;;;5.36;3.53;;;;;;;3.62;99.97;99615.75;2007371;80;20363;-70
2022/01/02 06:58:26;;;;;;;6.61;3.84;;;;;;;3.60;99.92;99612.28;2006726;80;20903;-70
2022/01/02 07:01:29;;;;;;;3.72;3.41;;;;;;;3.65;99.99;99614.94;2006182;78;34308;-70
2022/01/02 07:04:32;;;;;;;3.88;3.29;;;;;;;3.66;99.89;99631.22;2007626;80;20865;-70
2022/01/02 07:07:42;;;;;;;5.61;4.00;;;;;;;3.68;100.00;99607.31;2007438;80;21052;-70
2022/01/02 07:10:45;;;;;;;7.28;4.10;;;;;;;3.70;99.98;99602.22;2008513;80;20327;-70
2022/01/02 07:13:47;;;;;;;6.07;4.28;;;;;;;3.72;99.92;99598.00;2008898;80;20398;-70
2022/01/02 07:16:50;;;;;;;4.32;3.65;;;;;;;3.72;99.84;99587.72;2006396;78;20327;-72
2022/01/02 07:19:52;;;;;;;5.28;4.00;;;;;;;3.74;100.00;99586.94;2007947;80;20337;-72
2022/01/02 07:22:55;;;;;;;5.86;4.39;;;;;;;3.77;100.00;99578.44;2008271;80;21078;-72
2022/01/02 07:25:57;;;;;;;6.26;3.90;;;;;;;3.81;100.00;99583.72;2007810;80;20432;-72
2022/01/02 07:29:00;;;;;;;5.14;3.88;;;;;;;3.88;100.00;99592.44;2008178;80;20700;-72
2022/01/02 07:32:03;;;;;;;6.57;3.71;;;;;;;3.90;100.00;99588.19;2005984;78;20993;-72
2022/01/02 07:35:06;;;;;;;4.05;3.59;;;;;;;3.96;100.00;99603.78;2006551;80;20444;-72
2022/01/02 07:38:09;;;;;;;5.28;3.78;;;;;;;4.00;100.00;99602.16;2006919;80;20344;-74
2022/01/02 07:41:11;;;;;;;5.56;4.31;;;;;;;4.03;100.00;99608.22;2006440;80;20768;-73
2022/01/02 07:44:14;;;;;;;8.93;4.36;;;;;;;4.08;100.00;99614.34;2006297;80;20335;-71
2022/01/02 07:47:17;;;;;;;6.55;3.91;;;;;;;4.11;100.00;99616.97;2003953;78;21713;-72
2022/01/02 07:50:22;;;;;;;5.63;3.72;;;;;;;4.15;100.00;99610.25;2005162;80;20502;-72
2022/01/02 07:53:24;;;;;;;4.32;3.66;;;;;;;4.17;100.00;99608.59;2004540;80;20343;-73
2022/01/02 07:56:27;;;;;;;4.90;4.40;;;;;;;4.20;100.00;99614.66;2005668;80;20363;-73
2022/01/02 07:59:30;;;;;;;5.80;3.86;;;;;;;4.22;100.00;99612.13;2005686;80;20357;-72
2022/01/02 08:02:52;;;;;;;6.25;3.92;;;;;;;4.20;100.00;99606.09;2004306;77;20486;-74
2022/01/02 08:05:55;;;;;;;6.82;3.99;;;;;;;4.24;100.00;99597.59;2006154;80;20361;-73
2022/01/02 08:08:58;;;;;;;4.20;3.78;;;;;;;4.29;100.00;99592.56;2005850;80;20359;-73
2022/01/02 08:12:00;;;;;;;5.90;3.47;;;;;;;4.29;100.00;99585.72;2005460;80;20351;-72
2022/01/02 08:15:03;;;;;;;7.06;3.70;;;;;;;4.35;100.00;99585.03;2003682;80;20343;-72
2022/01/02 08:18:06;;;;;;;5.89;3.85;;;;;;;4.41;100.00;99580.00;2004262;78;20350;-72
2022/01/02 08:21:09;;;;;;;10.81;5.38;;;;;;;4.49;100.00;99576.81;2005392;80;20369;-72
2022/01/02 08:24:12;;;;;;;11.81;6.57;;;;;;;4.66;100.00;99576.28;2005677;80;20343;-74
2022/01/02 08:27:14;;;;;;;9.50;6.32;;;;;;;4.79;100.00;99575.72;2005798;80;20428;-73
2022/01/02 08:30:17;;;;;;;11.54;5.75;;;;;;;4.90;100.00;99569.13;2004061;80;20440;-73
2022/01/02 08:33:20;;;;;;;9.02;5.44;;;;;;;5.01;100.00;99574.47;1998611;81;20895;-73
2022/01/02 08:36:23;;;;;;;7.61;5.46;;;;;;;5.09;100.00;99585.81;2000245;81;20350;-73
2022/01/02 08:39:26;;;;;;;8.14;5.59;;;;;;;5.24;100.00;99598.13;2000355;80;20328;-72
2022/01/02 08:42:29;;;;;;;11.32;5.09;;;;;;;5.40;100.00;99615.63;2000610;80;20344;-72
2022/01/02 08:45:32;;;;;;;8.60;5.41;;;;;;;5.52;100.00;99633.84;1997874;79;20895;-72
2022/01/02 08:48:34;;;;;;;8.54;5.54;;;;;;;5.64;100.00;99615.22;2000034;80;20320;-72
2022/01/02 08:51:37;;;;;;;6.07;4.60;;;;;;;5.68;100.00;99622.16;2000018;81;20420;-73
2022/01/02 08:54:39;;;;;;;5.54;4.71;;;;;;;5.67;100.00;99613.56;2000399;81;20356;-72
2022/01/02 08:57:42;;;;;;;6.94;4.80;;;;;;;5.73;100.00;99610.22;2000617;81;21052;-72
2022/01/02 09:00:46;;;;;;;6.94;4.80;;;;;;;5.81;100.00;99603.50;1999594;78;20477;-72
2022/01/02 09:03:49;;;;;;;14.15;6.28;;;;;;;5.88;100.00;99594.16;2005767;80;20367;-72
2022/01/02 09:06:52;;;;;;;6.60;4.72;;;;;;;5.96;100.00;99603.81;2006069;80;20333;-72
2022/01/02 09:09:55;;;;;;;9.14;5.78;;;;;;;6.04;100.00;99604.78;2005163;80;20335;-73
2022/01/02 09:12:57;;;;;;;7.81;5.11;;;;;;;6.09;100.00;99591.09;2004623;80;20315;-72
2022/01/02 09:16:00;;;;;;;6.63;4.57;;;;;;;6.15;100.00;99586.94;2002293;78;20462;-72
2022/01/02 09:19:02;;;;;;;6.89;4.39;;;;;;;6.22;100.00;99580.16;1998252;81;20432;-72
2022/01/02 09:22:05;;;;;;;7.86;4.63;;;;;;;6.30;100.00;99560.53;1998636;81;20459;-72
2022/01/02 09:25:09;;;;;;;7.05;4.50;;;;;;;6.38;100.00;99582.16;2000265;81;20348;-72
2022/01/02 09:28:11;;;;;;;7.13;4.65;;;;;;;6.40;100.00;99574.44;1999338;80;20320;-72
2022/01/02 09:31:14;;;;;;;5.06;4.29;;;;;;;6.41;100.00;99535.75;1996611;78;37889;-73
2022/01/02 09:34:17;;;;;;;7.66;4.70;;;;;;;6.44;100.00;99524.63;1997338;81;20445;-72
2022/01/02 09:37:19;;;;;;;7.68;4.47;;;;;;;6.49;100.00;99510.09;1997559;80;20344;-72
2022/01/02 09:40:26;;;;;;;5.61;4.16;;;;;;;6.59;100.00;99528.28;1997954;81;21310;-72
2022/01/02 09:43:28;;;;;;;7.39;4.55;;;;;;;6.66;100.00;99506.91;2000729;80;20464;-72
2022/01/02 09:46:32;;;;;;;6.22;4.96;;;;;;;6.75;100.00;99505.28;1995670;78;20404;-73
2022/01/02 09:49:37;;;;;;;5.54;4.13;;;;;;;6.78;100.00;99489.81;1997846;81;20406;-72
2022/01/02 09:52:40;;;;;;;4.71;4.20;;;;;;;6.81;100.00;99485.56;1998258;81;20499;-73
2022/01/02 09:55:42;;;;;;;5.21;3.72;;;;;;;6.85;100.00;99479.59;2001143;80;20394;-72
2022/01/02 09:58:45;;;;;;;5.01;3.72;;;;;;;6.91;100.00;99484.84;1999053;81;20328;-73
2022/01/02 10:01:47;;;;;;;5.35;3.31;;;;;;;6.95;100.00;99484.00;1998561;78;24421;-73
2022/01/02 10:05:01;;;;;;;5.95;4.65;;;;;;;6.97;100.00;99507.25;1998880;81;20430;-73
2022/01/02 10:08:19;;;;;;;3.39;2.86;;;;;;;6.98;100.00;99538.25;1998911;81;20961;-73
2022/01/02 10:11:24;;;;;;;4.93;2.58;;;;;;;7.08;98.96;99613.25;1998947;81;20382;-73
2022/01/02 10:14:27;;;;;;;3.58;2.60;;;;;;;7.13;98.04;99594.38;1995147;81;20384;-74
2022/01/02 10:17:29;;;;;;;2.88;2.39;;;;;;;7.19;97.47;99628.03;1996422;79;21357;-73
2022/01/02 10:20:44;;;;;;;2.26;2.06;;;;;;;7.23;96.85;99616.03;1999478;81;21364;-74
2022/01/02 10:23:47;;;;;;;2.59;2.13;;;;;;;7.34;96.04;99616.16;2000988;81;20312;-74
2022/01/02 10:27:18;;;;;;;2.81;2.61;;;;;;;7.43;94.84;99580.97;1999539;81;21561;-73
2022/01/02 10:30:21;;;;;;;3.34;2.14;;;;;;;7.51;93.55;99581.03;1998841;79;22748;-73
2022/01/02 10:33:24;;;;;;;2.35;2.03;;;;;;;7.64;92.36;99562.25;1999798;81;20998;-73
2022/01/02 10:36:35;;;;;;;2.15;1.95;;;;;;;7.67;92.14;99545.91;1998929;81;21289;-73
2022/01/02 10:39:38;;;;;;;2.04;1.84;;;;;;;7.73;90.75;99513.25;1998813;81;20320;-73
2022/01/02 10:42:42;;;;;;;3.66;1.90;;;;;;;7.83;89.39;99503.81;1999095;81;20797;-73
2022/01/02 10:45:48;;;;;;;2.06;1.85;;;;;;;7.89;88.97;99537.47;1998987;78;20416;-74
2022/01/02 10:48:53;;;;;;;3.20;1.96;;;;;;;7.95;88.26;99547.88;2004579;80;20351;-73
2022/01/02 10:52:20;;;;;;;3.28;2.13;;;;;;;8.04;88.06;99539.31;2004519;80;20335;-73
2022/01/02 10:55:26;;;;;;;3.46;2.10;;;;;;;8.19;86.28;99526.53;2004767;80;20375;-73
2022/01/02 10:58:29;;;;;;;1.81;1.54;;;;;;;8.32;86.42;99520.59;2004302;80;20372;-72
2022/01/02 11:01:32;;;;;;;2.22;1.95;;;;;;;8.48;86.46;99527.63;1999553;78;20621;-73
2022/01/02 11:04:35;;;;;;;2.84;1.58;;;;;;;8.61;86.26;99528.53;1999570;80;20386;-72
2022/01/02 11:07:39;;;;;;;2.60;1.77;;;;;;;8.69;84.59;99508.75;1998974;81;20397;-73
2022/01/02 11:10:42;;;;;;;1.73;1.50;;;;;;;8.73;84.41;99522.56;1999440;81;20344;-73
2022/01/02 11:13:45;;;;;;;1.52;1.42;;;;;;;8.80;83.58;99532.13;1999249;81;20432;-73
2022/01/02 11:16:47;;;;;;;2.84;1.63;;;;;;;8.90;82.11;99535.59;1997663;79;20922;-72
2022/01/02 11:19:50;;;;;;;1.60;1.46;;;;;;;8.99;80.69;99527.88;1999562;81;20336;-72
2022/01/02 11:22:59;;;;;;;2.01;1.81;;;;;;;9.02;80.89;99502.00;2001508;81;20372;-72
2022/01/02 11:26:12;;;;;;;2.51;1.90;;;;;;;9.05;80.51;99509.78;2001226;81;20398;-73
2022/01/02 11:29:34;;;;;;;2.19;1.96;;;;;;;9.06;80.37;99494.22;1999823;81;20284;-73
2022/01/02 11:32:37;;;;;;;3.51;1.71;;;;;;;9.16;78.75;99502.06;1999326;78;21862;-74
2022/01/02 11:35:42;;;;;;;3.14;1.88;;;;;;;9.21;78.18;99493.41;2000276;81;21156;-73
2022/01/02 11:38:56;;;;;;;1.95;1.59;;;;;;;9.26;78.35;99504.66;2001067;81;20342;-74
2022/01/02 11:41:59;;;;;;;1.96;1.48;;;;;;;9.29;78.94;99502.06;1998532;81;21020;-74
2022/01/02 11:45:07;;;;;;;1.70;1.42;;;;;;;9.33;77.44;99496.03;1998787;80;20337;-74
2022/01/02 11:48:27;;;;;;;2.11;1.36;;;;;;;9.42;76.58;99489.16;1999901;78;22912;-73
2022/01/02 11:51:48;;;;;;;2.19;1.86;;;;;;;9.44;77.11;99490.00;2001145;81;20443;-74
2022/01/02 11:54:54;;;;;;;2.38;1.30;;;;;;;9.52;76.69;99490.91;2000584;81;20344;-74
2022/01/02 11:57:56;;;;;;;1.99;1.52;;;;;;;9.63;76.56;99491.75;2000649;80;20324;-73
2022/01/02 12:00:59;;;;;;;1.88;1.58;;;;;;;9.73;77.18;99496.09;1999341;78;23331;-73
2022/01/02 12:04:02;;;;;;;2.26;1.50;;;;;;;9.85;77.15;99488.31;2001546;81;20402;-73
2022/01/02 12:07:05;;;;;;;2.44;1.63;;;;;;;10.01;76.74;99502.13;2000109;81;20718;-73
2022/01/02 12:10:13;;;;;;;2.46;1.69;;;;;;;10.18;74.81;99479.63;2000652;81;20329;-73
2022/01/02 12:13:17;;;;;;;3.96;1.58;;;;;;;10.37;74.96;99484.84;2003154;80;20215;-73
2022/01/02 12:16:32;;;;;;;4.04;1.34;;;;;;;10.47;74.48;99463.19;1999232;78;20305;-73
2022/01/02 12:19:59;;;;;;;3.30;1.49;;;;;;;10.59;73.59;99460.53;2000220;81;20266;-74
2022/01/02 12:23:01;;;;;;;3.59;1.55;;;;;;;10.70;72.76;99450.97;2001402;81;20227;-73
2022/01/02 12:26:06;;;;;;;1.71;1.36;;;;;;;10.81;72.20;99445.75;2000838;81;20283;-73
2022/01/02 12:29:13;;;;;;;1.88;1.25;;;;;;;10.90;71.36;99458.69;2000618;81;20193;-73
2022/01/02 12:32:16;;;;;;;1.80;1.19;;;;;;;11.02;71.05;99456.03;1998327;78;20590;-73
2022/01/02 12:35:18;;;;;;;1.96;1.38;;;;;;;11.10;70.99;99451.66;1999328;81;20260;-73
2022/01/02 12:38:21;;;;;;;1.88;1.34;;;;;;;11.18;71.35;99455.09;2000470;81;20190;-73
2022/01/02 12:41:28;;;;;;;1.20;1.10;;;;;;;11.24;69.36;99461.97;1999552;81;20258;-73
2022/01/02 12:44:34;;;;;;;1.55;1.19;;;;;;;11.31;69.86;99460.19;2000653;81;20284;-73
2022/01/02 12:47:48;;;;;;;2.17;1.14;;;;;;;11.35;68.94;99464.50;1999173;78;24800;-73
2022/01/02 12:50:50;;;;;;;2.15;1.10;;;;;;;11.36;68.98;99461.91;2000358;81;20238;-73
2022/01/02 12:54:07;;;;;;;2.95;1.46;;;;;;;11.37;69.70;99455.84;2000401;81;20200;-73
2022/01/02 12:57:12;;;;;;;2.04;1.25;;;;;;;11.38;70.60;99441.09;2000466;81;20248;-74
2022/01/02 13:00:15;;;;;;;3.30;1.31;;;;;;;11.42;68.75;99445.38;1998646;80;20307;-73
2022/01/02 13:03:19;;;;;;;3.86;1.46;;;;;;;11.47;67.95;99439.28;1999414;79;23457;-73
2022/01/02 13:06:25;;;;;;;1.81;1.24;;;;;;;11.54;67.58;99442.72;2003435;80;20218;-73
2022/01/02 13:09:40;;;;;;;1.83;1.10;;;;;;;11.63;68.41;99441.75;2000272;80;21589;-73
2022/01/02 13:12:45;;;;;;;1.91;1.30;;;;;;;11.69;68.00;99447.81;2000044;81;20190;-73
2022/01/02 13:15:48;;;;;;;2.79;1.35;;;;;;;11.76;68.31;99448.59;2001480;78;22948;-75
2022/01/02 13:18:51;;;;;;;3.75;1.27;;;;;;;11.80;68.97;99448.59;2007495;80;20752;-73
2022/01/02 13:21:54;;;;;;;2.75;1.39;;;;;;;11.79;67.68;99452.06;2007117;80;20267;-73
2022/01/02 13:25:03;;;;;;;4.80;1.45;;;;;;;11.79;67.96;99459.00;2006707;80;20772;-73
2022/01/02 13:28:10;;;;;;;1.94;1.17;;;;;;;11.73;66.89;99457.31;2008109;80;21089;-73
2022/01/02 13:31:24;;;;;;;3.92;1.26;;;;;;;11.74;67.82;99455.56;2003665;78;20462;-73
2022/01/02 13:34:29;;;;;;;2.47;1.25;;;;;;;11.71;69.25;99461.66;2001868;81;20215;-73
2022/01/02 13:37:41;;;;;;;3.76;1.05;;;;;;;11.68;69.66;99459.09;2001957;81;20186;-73
2022/01/02 13:40:46;;;;;;;3.84;1.56;;;;;;;11.67;68.90;99453.84;2002118;81;20177;-73
2022/01/02 13:43:49;;;;;;;3.69;1.40;;;;;;;11.67;69.14;99457.34;2001418;81;20612;-73
2022/01/02 13:46:53;;;;;;;5.56;1.76;;;;;;;11.67;69.37;99466.88;2001285;78;24439;-73
2022/01/02 13:49:59;;;;;;;2.45;1.38;;;;;;;11.65;69.91;99474.69;2002051;81;20297;-73
2022/01/02 13:53:05;;;;;;;2.46;1.25;;;;;;;11.64;70.09;99480.75;2002361;81;20215;-73
2022/01/02 13:56:12;;;;;;;2.20;1.06;;;;;;;11.64;70.21;99477.31;2001296;81;20677;-73
2022/01/02 13:59:24;;;;;;;4.69;1.33;;;;;;;11.62;71.13;99473.84;2000971;81;20227;-73
2022/01/02 14:02:39;;;;;;;5.57;1.40;;;;;;;11.62;71.64;99472.09;1998471;80;20437;-73
2022/01/02 14:05:46;;;;;;;6.00;1.52;;;;;;;11.63;71.80;99470.38;2000554;81;20313;-73
2022/01/02 14:08:48;;;;;;;3.74;1.67;;;;;;;11.64;71.95;99474.69;2001499;81;20658;-74
2022/01/02 14:11:53;;;;;;;2.80;1.38;;;;;;;11.63;72.36;99481.63;2000669;81;20757;-73
2022/01/02 14:15:08;;;;;;;2.29;1.20;;;;;;;11.64;73.51;99490.31;2000571;81;20292;-73
2022/01/02 14:18:11;;;;;;;5.94;1.39;;;;;;;11.65;74.08;99484.22;1995598;78;20770;-74
2022/01/02 14:21:13;;;;;;;2.96;1.17;;;;;;;11.67;74.65;99483.38;2000468;81;20278;-73
2022/01/02 14:24:16;;;;;;;1.85;0.80;;;;;;;11.68;75.47;99476.44;1999918;81;20213;-73
2022/01/02 14:27:24;;;;;;;3.21;1.17;;;;;;;11.71;75.67;99479.00;2000363;81;20688;-73
2022/01/02 14:30:27;;;;;;;4.04;0.90;;;;;;;11.72;76.09;99489.38;1999244;78;23468;-73
2022/01/02 14:33:30;;;;;;;2.06;1.02;;;;;;;11.75;76.43;99489.38;2000111;81;20687;-73
2022/01/02 14:36:32;;;;;;;3.34;0.90;;;;;;;11.81;76.71;99501.47;2001077;80;20224;-73
2022/01/02 14:39:38;;;;;;;4.81;1.13;;;;;;;11.85;76.72;99492.81;2001315;81;20410;-73